createdAt,value
2023-05-19T13:52:36.741Z,23.13
2023-05-19T14:01:19.743Z,22.95
2023-05-19T14:02:20.666Z,23.00
2023-05-19T14:04:37.010Z,23.02
2023-05-19T14:05:37.972Z,23.53
2023-05-19T14:06:37.981Z,23.68
2023-05-19T14:07:37.945Z,23.66
2023-05-19T14:08:37.953Z,24.84
2023-05-19T14:09:37.935Z,28.84
2023-05-19T14:10:37.948Z,30.83
2023-05-19T14:11:37.903Z,29.64
2023-05-19T14:12:55.008Z,27.05
2023-05-19T14:13:41.721Z,25.82
2023-05-19T14:14:37.884Z,25.24
2023-05-19T14:15:38.300Z,24.76
2023-05-19T14:16:38.426Z,24.52
2023-05-19T14:17:37.915Z,24.34
2023-05-19T14:18:37.885Z,24.33
2023-05-19T14:19:37.819Z,23.95
2023-05-19T14:20:37.829Z,23.90
2023-05-19T14:21:37.799Z,24.06
2023-05-19T14:22:37.802Z,24.06
2023-05-19T14:23:37.778Z,23.86
2023-05-19T14:24:37.789Z,23.68
2023-05-19T14:25:37.777Z,23.56
2023-05-19T14:26:37.755Z,23.53
2023-05-19T14:27:37.738Z,23.63
2023-05-19T14:28:37.747Z,23.66
2023-05-19T14:29:37.734Z,23.66
2023-05-19T14:30:37.712Z,23.73
2023-05-19T14:31:37.725Z,23.87
2023-05-19T14:32:37.714Z,23.76
2023-05-19T14:33:37.669Z,23.71
2023-05-19T14:34:37.693Z,23.46
2023-05-19T14:35:37.648Z,23.54
2023-05-19T14:36:37.652Z,23.60
2023-05-19T14:37:37.639Z,23.58
2023-05-19T14:38:37.654Z,23.53
2023-05-19T14:39:37.620Z,23.58
2023-05-19T14:40:37.608Z,23.50
2023-05-19T14:41:37.585Z,23.53
2023-05-19T14:42:37.581Z,23.43
2023-05-19T14:43:37.576Z,23.39
2023-05-19T14:44:37.596Z,23.48
2023-05-19T14:45:37.546Z,23.35
2023-05-19T14:46:37.593Z,23.10
2023-05-19T14:47:37.537Z,23.08
2023-05-19T14:48:37.535Z,23.15
2023-05-19T14:49:37.506Z,23.39
2023-05-19T14:50:37.503Z,23.46
2023-05-19T14:51:37.480Z,23.58
2023-05-19T14:52:37.502Z,23.60
2023-05-19T14:53:37.516Z,23.32
2023-05-19T14:54:37.464Z,23.00
2023-05-19T14:55:37.456Z,22.85
2023-05-19T14:56:37.453Z,22.79
2023-05-19T14:57:37.410Z,22.68
2023-05-19T14:58:37.420Z,22.49
2023-05-19T14:59:37.404Z,22.47
2023-05-19T15:00:37.420Z,22.36
2023-05-19T15:01:37.473Z,22.24
2023-05-19T15:02:37.402Z,22.03
2023-05-19T15:03:37.392Z,21.88
2023-05-19T15:04:37.346Z,22.00
2023-05-19T15:05:37.329Z,22.08
2023-05-19T15:06:37.343Z,22.15
2023-05-19T15:07:37.332Z,22.39
2023-05-19T15:08:37.304Z,22.30
2023-05-19T15:09:37.286Z,22.31
2023-05-19T15:10:37.285Z,22.34
2023-05-19T15:11:37.299Z,22.27
2023-05-19T15:12:37.282Z,22.21
2023-05-19T15:13:37.259Z,22.09
2023-05-19T15:14:37.269Z,22.16
2023-05-19T15:15:37.264Z,22.12
2023-05-19T15:16:37.231Z,22.09
2023-05-19T15:17:37.225Z,22.13
2023-05-19T15:18:37.221Z,22.06
2023-05-19T15:19:37.210Z,22.05
2023-05-19T15:20:37.175Z,21.94
2023-05-19T15:21:37.166Z,22.00
2023-05-19T15:22:37.151Z,22.08
2023-05-19T15:23:37.150Z,22.24
2023-05-19T15:24:37.142Z,22.43
2023-05-19T15:25:37.116Z,22.47
2023-05-19T15:26:37.116Z,22.47
2023-05-19T15:27:37.104Z,22.43
2023-05-19T15:28:37.086Z,22.34
2023-05-19T15:29:37.097Z,22.13
2023-05-19T15:30:37.306Z,22.21
2023-05-19T15:31:38.472Z,22.08
2023-05-19T15:32:37.064Z,21.86
2023-05-19T15:33:37.046Z,21.82
2023-05-19T15:34:37.031Z,21.67
2023-05-19T15:35:37.028Z,21.68
2023-05-19T15:36:37.004Z,21.80
2023-05-19T15:37:36.992Z,21.91
2023-05-19T15:38:36.985Z,21.97
2023-05-19T15:39:36.987Z,21.88
2023-05-19T15:40:36.983Z,21.77
2023-05-19T15:41:36.942Z,21.80
2023-05-19T15:42:36.944Z,21.90
2023-05-19T15:43:36.939Z,21.97
2023-05-19T15:44:36.972Z,21.95
2023-05-19T15:45:36.908Z,21.69
2023-05-19T15:46:36.931Z,21.54
2023-05-19T15:47:36.930Z,21.32
2023-05-19T15:48:36.882Z,21.17
2023-05-19T15:49:36.876Z,21.17
2023-05-19T15:50:37.069Z,21.09
2023-05-19T15:51:36.845Z,20.99
2023-05-19T15:52:36.835Z,20.92
2023-05-19T15:53:36.834Z,20.95
2023-05-19T15:54:36.823Z,20.94
2023-05-19T15:55:36.808Z,20.97
2023-05-19T15:56:36.803Z,20.94
2023-05-19T15:57:36.785Z,21.02
2023-05-19T15:58:36.795Z,21.06
2023-05-19T15:59:36.765Z,21.04
2023-05-19T16:00:36.751Z,20.97
2023-05-19T16:01:36.810Z,20.90
2023-05-19T16:02:36.764Z,20.79
2023-05-19T16:03:36.837Z,20.80
2023-05-19T16:04:36.712Z,20.84
2023-05-19T16:05:36.710Z,20.84
2023-05-19T16:06:36.689Z,20.80
2023-05-19T16:07:36.730Z,20.72
2023-05-19T16:08:36.678Z,20.69
2023-05-19T16:09:36.668Z,20.59
2023-05-19T16:10:36.648Z,20.62
2023-05-19T16:11:36.645Z,20.65
2023-05-19T16:12:36.774Z,20.62
2023-05-19T16:13:36.625Z,20.55
2023-05-19T16:14:36.752Z,20.57
2023-05-19T16:15:36.612Z,20.55
2023-05-19T16:16:36.617Z,20.59
2023-05-19T16:17:36.607Z,20.62
2023-05-19T16:18:36.564Z,20.59
2023-05-19T16:19:36.563Z,20.52
2023-05-19T16:20:36.547Z,20.42
2023-05-19T16:21:36.541Z,20.43
2023-05-19T16:22:36.542Z,20.35
2023-05-19T16:23:36.536Z,20.35
2023-05-19T16:24:36.508Z,20.38
2023-05-19T16:25:36.503Z,20.32
2023-05-19T16:26:36.498Z,20.23
2023-05-19T16:27:36.516Z,20.20
2023-05-19T16:28:36.477Z,20.26
2023-05-19T16:29:36.460Z,20.13
2023-05-19T16:30:36.694Z,20.05
2023-05-19T16:31:36.504Z,20.06
2023-05-19T16:32:36.456Z,20.09
2023-05-19T16:33:36.416Z,20.16
2023-05-19T16:34:36.412Z,20.20
2023-05-19T16:35:36.445Z,20.26
2023-05-19T16:36:36.400Z,20.20
2023-05-19T16:37:36.386Z,20.16
2023-05-19T16:38:36.360Z,20.02
2023-05-19T16:39:36.358Z,20.01
2023-05-19T16:40:36.610Z,19.95
2023-05-19T16:41:36.335Z,19.95
2023-05-19T16:42:36.315Z,19.86
2023-05-19T16:43:36.317Z,19.80
2023-05-19T16:44:36.296Z,19.66
2023-05-19T16:45:36.339Z,19.62
2023-05-19T16:46:36.463Z,19.63
2023-05-19T16:47:36.338Z,19.73
2023-05-19T16:48:36.253Z,19.80
2023-05-19T16:49:36.270Z,19.76
2023-05-19T16:50:36.486Z,19.76
2023-05-19T16:51:36.225Z,19.73
2023-05-19T16:52:36.213Z,19.79
2023-05-19T16:53:36.212Z,19.79
2023-05-19T16:54:36.239Z,19.76
2023-05-19T16:55:36.194Z,19.61
2023-05-19T16:56:36.176Z,19.63
2023-05-19T16:57:36.166Z,19.63
2023-05-19T16:58:36.152Z,19.59
2023-05-19T16:59:36.169Z,19.54
2023-05-19T17:00:36.263Z,19.54
2023-05-19T17:01:36.196Z,19.53
2023-05-19T17:02:36.150Z,19.56
2023-05-19T17:03:36.136Z,19.54
2023-05-19T17:04:36.208Z,19.47
2023-05-19T17:05:36.083Z,19.48
2023-05-19T17:06:36.073Z,19.50
2023-05-19T17:07:36.061Z,19.43
2023-05-19T17:08:36.128Z,19.33
2023-05-19T17:09:36.047Z,19.28
2023-05-19T17:10:36.071Z,19.25
2023-05-19T17:11:36.022Z,19.25
2023-05-19T17:12:36.005Z,19.21
2023-05-19T17:13:36.043Z,19.19
2023-05-19T17:14:35.984Z,19.21
2023-05-19T17:15:35.969Z,19.16
2023-05-19T17:16:36.066Z,19.07
2023-05-19T17:17:35.999Z,19.07
2023-05-19T17:18:36.026Z,19.11
2023-05-19T17:19:35.958Z,19.10
2023-05-19T17:20:36.076Z,19.07
2023-05-19T17:21:35.914Z,18.95
2023-05-19T17:22:35.928Z,18.81
2023-05-19T17:23:35.904Z,18.79
2023-05-19T17:24:35.875Z,18.81
2023-05-19T17:25:35.871Z,18.75
2023-05-19T17:26:35.854Z,18.73
2023-05-19T17:27:35.848Z,18.73
2023-05-19T17:28:35.854Z,18.77
2023-05-19T17:29:36.757Z,18.72
2023-05-19T17:30:35.910Z,18.67
2023-05-19T17:31:35.822Z,18.69
2023-05-19T17:32:36.100Z,18.72
2023-05-19T17:33:35.827Z,18.77
2023-05-19T17:34:35.781Z,18.81
2023-05-19T17:35:35.762Z,18.77
2023-05-19T17:36:35.767Z,18.72
2023-05-19T17:37:35.762Z,18.70
2023-05-19T17:38:35.731Z,18.67
2023-05-19T17:39:35.729Z,18.70
2023-05-19T17:40:36.096Z,18.69
2023-05-19T17:41:35.732Z,18.61
2023-05-19T17:42:35.689Z,18.65
2023-05-19T17:43:35.679Z,18.58
2023-05-19T17:44:35.663Z,18.57
2023-05-19T17:45:35.677Z,18.61
2023-05-19T17:46:35.701Z,18.61
2023-05-19T17:47:35.651Z,18.55
2023-05-19T17:48:35.620Z,18.50
2023-05-19T17:49:35.614Z,18.52
2023-05-19T17:50:35.808Z,18.54
2023-05-19T17:51:35.609Z,18.54
2023-05-19T17:52:35.583Z,18.40
2023-05-19T17:53:35.572Z,18.37
2023-05-19T17:54:35.558Z,18.40
2023-05-19T17:55:35.564Z,18.33
2023-05-19T17:56:35.536Z,18.33
2023-05-19T17:57:35.531Z,18.32
2023-05-19T17:58:35.548Z,18.33
2023-05-19T17:59:35.556Z,18.33
2023-05-19T18:00:35.660Z,18.30
2023-05-19T18:01:35.535Z,18.30
2023-05-19T18:02:35.576Z,18.30
2023-05-19T18:03:35.554Z,18.32
2023-05-19T18:04:35.466Z,18.33
2023-05-19T18:05:35.461Z,18.26
2023-05-19T18:06:35.442Z,18.24
2023-05-19T18:07:35.423Z,18.26
2023-05-19T18:08:35.405Z,18.21
2023-05-19T18:09:35.399Z,18.15
2023-05-19T18:10:35.515Z,18.17
2023-05-19T18:11:35.388Z,18.18
2023-05-19T18:12:35.379Z,18.15
2023-05-19T18:13:35.364Z,18.08
2023-05-19T18:14:35.347Z,18.02
2023-05-19T18:15:35.354Z,18.02
2023-05-19T18:16:35.382Z,18.00
2023-05-19T18:17:35.374Z,17.95
2023-05-19T18:18:35.332Z,17.97
2023-05-19T18:19:35.305Z,17.99
2023-05-19T18:20:35.451Z,17.96
2023-05-19T18:21:35.276Z,17.95
2023-05-19T18:22:35.264Z,17.85
2023-05-19T18:23:35.283Z,17.82
2023-05-19T18:24:35.247Z,17.82
2023-05-19T18:25:35.264Z,17.77
2023-05-19T18:26:35.215Z,17.78
2023-05-19T18:27:35.227Z,17.78
2023-05-19T18:28:35.201Z,17.77
2023-05-19T18:29:35.218Z,17.75
2023-05-19T18:30:35.463Z,17.71
2023-05-19T18:31:35.208Z,17.67
2023-05-19T18:32:35.167Z,17.64
2023-05-19T18:33:35.151Z,17.58
2023-05-19T18:34:35.157Z,17.54
2023-05-19T18:35:35.129Z,17.40
2023-05-19T18:36:35.156Z,17.40
2023-05-19T18:37:35.119Z,17.40
2023-05-19T18:38:35.110Z,17.38
2023-05-19T18:39:35.134Z,17.37
2023-05-19T18:40:35.319Z,17.26
2023-05-19T18:41:35.064Z,17.22
2023-05-19T18:42:35.051Z,17.13
2023-05-19T18:43:35.071Z,17.15
2023-05-19T18:44:35.028Z,17.16
2023-05-19T18:45:35.076Z,17.18
2023-05-19T18:46:35.014Z,17.13
2023-05-19T18:47:35.078Z,17.06
2023-05-19T18:48:34.986Z,17.00
2023-05-19T18:49:34.977Z,16.89
2023-05-19T18:50:35.128Z,16.96
2023-05-19T18:51:34.979Z,16.88
2023-05-19T18:52:34.959Z,16.85
2023-05-19T18:53:34.959Z,16.83
2023-05-19T18:54:34.933Z,16.79
2023-05-19T18:55:36.501Z,16.82
2023-05-19T18:56:34.936Z,16.82
2023-05-19T18:57:34.923Z,16.82
2023-05-19T18:58:34.910Z,16.78
2023-05-19T18:59:34.887Z,16.73
2023-05-19T19:00:35.255Z,16.71
2023-05-19T19:01:34.968Z,16.70
2023-05-19T19:02:34.880Z,16.67
2023-05-19T19:03:34.859Z,16.61
2023-05-19T19:04:34.882Z,16.56
2023-05-19T19:05:34.832Z,16.53
2023-05-19T19:06:34.824Z,16.49
2023-05-19T19:07:34.791Z,16.43
2023-05-19T19:08:34.773Z,16.42
2023-05-19T19:09:34.784Z,16.38
2023-05-19T19:10:35.028Z,16.37
2023-05-19T19:11:34.756Z,16.37
2023-05-19T19:12:34.742Z,16.43
2023-05-19T19:13:34.719Z,16.45
2023-05-19T19:14:34.714Z,16.38
2023-05-19T19:15:34.721Z,16.43
2023-05-19T19:16:34.735Z,16.38
2023-05-19T19:17:34.687Z,16.37
2023-05-19T19:18:34.723Z,16.35
2023-05-19T19:19:34.802Z,16.41
2023-05-19T19:20:34.806Z,16.73
2023-05-19T19:21:34.649Z,16.92
2023-05-19T19:22:34.656Z,16.93
2023-05-19T19:23:34.628Z,16.92
2023-05-19T19:24:34.626Z,16.90
2023-05-19T19:25:34.611Z,16.81
2023-05-19T19:26:34.595Z,16.68
2023-05-19T19:27:34.577Z,16.56
2023-05-19T19:28:34.564Z,16.49
2023-05-19T19:29:34.554Z,16.45
2023-05-19T19:30:34.884Z,16.30
2023-05-19T19:31:34.558Z,16.09
2023-05-19T19:32:34.585Z,15.94
2023-05-19T19:33:34.568Z,15.94
2023-05-19T19:34:34.556Z,15.86
2023-05-19T19:35:34.555Z,15.78
2023-05-19T19:36:34.539Z,15.79
2023-05-19T19:37:34.493Z,15.69
2023-05-19T19:38:34.471Z,15.67
2023-05-19T19:39:34.453Z,15.57
2023-05-19T19:40:34.802Z,15.51
2023-05-19T19:41:34.487Z,15.43
2023-05-19T19:42:34.481Z,15.43
2023-05-19T19:43:34.485Z,15.41
2023-05-19T19:44:34.447Z,15.39
2023-05-19T19:45:34.447Z,15.31
2023-05-19T19:46:34.485Z,15.24
2023-05-19T19:47:34.440Z,15.17
2023-05-19T19:48:34.431Z,15.13
2023-05-19T19:49:34.397Z,15.11
2023-05-19T19:50:34.718Z,15.06
2023-05-19T19:51:34.382Z,15.03
2023-05-19T19:52:34.376Z,15.02
2023-05-19T19:53:34.358Z,14.93
2023-05-19T19:54:34.357Z,14.96
2023-05-19T19:55:34.342Z,14.93
2023-05-19T19:56:34.331Z,14.91
2023-05-19T19:57:34.442Z,14.84
2023-05-19T19:58:34.307Z,14.75
2023-05-19T19:59:34.577Z,14.65
2023-05-19T20:00:34.547Z,14.61
2023-05-19T20:01:34.313Z,14.60
2023-05-19T20:02:34.333Z,14.61
2023-05-19T20:03:34.354Z,14.68
2023-05-19T20:04:34.340Z,14.64
2023-05-19T20:05:34.237Z,14.61
2023-05-19T20:06:34.227Z,14.58
2023-05-19T20:07:34.211Z,14.47
2023-05-19T20:08:34.198Z,14.47
2023-05-19T20:09:34.186Z,14.52
2023-05-19T20:10:34.373Z,14.61
2023-05-19T20:11:34.184Z,14.69
2023-05-19T20:12:34.157Z,14.78
2023-05-19T20:13:34.142Z,14.75
2023-05-19T20:14:34.152Z,14.78
2023-05-19T20:15:34.143Z,14.80
2023-05-19T20:16:34.130Z,14.78
2023-05-19T20:17:34.130Z,14.72
2023-05-19T20:18:34.096Z,14.65
2023-05-19T20:19:34.167Z,14.58
2023-05-19T20:20:34.346Z,14.49
2023-05-19T20:21:34.064Z,14.22
2023-05-19T20:22:34.056Z,14.09
2023-05-19T20:23:34.066Z,14.04
2023-05-19T20:24:34.035Z,13.99
2023-05-19T20:25:34.180Z,14.04
2023-05-19T20:26:34.013Z,13.91
2023-05-19T20:27:34.000Z,13.81
2023-05-19T20:28:33.988Z,13.79
2023-05-19T20:29:33.997Z,13.82
2023-05-19T20:30:34.211Z,13.76
2023-05-19T20:31:33.959Z,13.71
2023-05-19T20:32:33.987Z,13.79
2023-05-19T20:33:33.951Z,13.69
2023-05-19T20:34:33.969Z,13.61
2023-05-19T20:35:34.126Z,13.55
2023-05-19T20:36:33.911Z,13.63
2023-05-19T20:37:33.892Z,13.70
2023-05-19T20:38:33.883Z,13.76
2023-05-19T20:39:33.883Z,13.63
2023-05-19T20:40:33.857Z,13.48
2023-05-19T20:41:33.847Z,13.44
2023-05-19T20:42:33.846Z,13.38
2023-05-19T20:43:33.852Z,13.33
2023-05-19T20:44:33.842Z,13.29
2023-05-19T20:45:34.067Z,13.27
2023-05-19T20:46:33.822Z,13.32
2023-05-19T20:47:33.806Z,13.18
2023-05-19T20:48:33.807Z,13.11
2023-05-19T20:49:33.761Z,13.00
2023-05-19T20:50:33.923Z,12.90
2023-05-19T20:51:33.740Z,12.89
2023-05-19T20:52:33.736Z,12.82
2023-05-19T20:53:33.735Z,12.81
2023-05-19T20:54:33.709Z,12.82
2023-05-19T20:55:33.950Z,12.85
2023-05-19T20:56:33.689Z,12.79
2023-05-19T20:57:33.675Z,12.81
2023-05-19T20:58:33.690Z,12.75
2023-05-19T20:59:33.691Z,12.75
2023-05-19T21:00:34.065Z,12.79
2023-05-19T21:01:33.735Z,12.75
2023-05-19T21:02:33.706Z,12.74
2023-05-19T21:03:33.624Z,12.79
2023-05-19T21:04:33.616Z,12.82
2023-05-19T21:05:33.802Z,12.86
2023-05-19T21:06:33.636Z,12.87
2023-05-19T21:07:33.581Z,12.75
2023-05-19T21:08:33.561Z,12.81
2023-05-19T21:09:33.553Z,12.74
2023-05-19T21:10:33.727Z,12.68
2023-05-19T21:11:33.541Z,12.49
2023-05-19T21:12:33.546Z,12.47
2023-05-19T21:13:33.509Z,12.44
2023-05-19T21:14:33.499Z,12.47
2023-05-19T21:15:33.494Z,12.45
2023-05-19T21:16:33.531Z,12.36
2023-05-19T21:17:33.479Z,12.34
2023-05-19T21:18:33.471Z,12.39
2023-05-19T21:19:33.523Z,12.45
2023-05-19T21:20:33.612Z,12.44
2023-05-19T21:21:33.438Z,12.35
2023-05-19T21:22:33.416Z,12.26
2023-05-19T21:23:33.397Z,12.26
2023-05-19T21:24:33.392Z,12.31
2023-05-19T21:25:33.392Z,12.31
2023-05-19T21:26:33.372Z,12.32
2023-05-19T21:27:33.361Z,12.35
2023-05-19T21:28:33.345Z,12.38
2023-05-19T21:29:33.337Z,12.34
2023-05-19T21:30:33.471Z,12.26
2023-05-19T21:31:33.385Z,12.32
2023-05-19T21:32:33.352Z,12.27
2023-05-19T21:33:33.298Z,12.20
2023-05-19T21:34:33.289Z,12.14
2023-05-19T21:35:33.293Z,12.06
2023-05-19T21:36:33.268Z,11.98
2023-05-19T21:37:33.257Z,11.84
2023-05-19T21:38:33.255Z,11.83
2023-05-19T21:39:33.252Z,11.91
2023-05-19T21:40:33.396Z,11.99
2023-05-19T21:41:33.211Z,11.86
2023-05-19T21:42:33.211Z,11.86
2023-05-19T21:43:33.200Z,11.87
2023-05-19T21:44:33.209Z,11.77
2023-05-19T21:45:33.177Z,11.82
2023-05-19T21:46:33.191Z,11.87
2023-05-19T21:47:33.201Z,11.83
2023-05-19T21:48:33.154Z,11.80
2023-05-19T21:49:33.155Z,11.72
2023-05-19T21:50:33.400Z,11.73
2023-05-19T21:51:33.109Z,12.08
2023-05-19T21:52:33.125Z,12.26
2023-05-19T21:53:33.117Z,12.31
2023-05-19T21:54:33.096Z,12.06
2023-05-19T21:55:33.106Z,12.20
2023-05-19T21:56:33.065Z,12.24
2023-05-19T21:57:33.049Z,12.24
2023-05-19T21:58:33.046Z,12.27
2023-05-19T21:59:33.053Z,12.36
2023-05-19T22:00:33.338Z,12.38
2023-05-19T22:01:33.066Z,12.39
2023-05-19T22:02:33.032Z,12.24
2023-05-19T22:03:33.055Z,12.06
2023-05-19T22:04:32.996Z,11.96
2023-05-19T22:05:32.965Z,11.93
2023-05-19T22:06:32.958Z,11.76
2023-05-19T22:07:32.939Z,11.67
2023-05-19T22:08:32.960Z,11.65
2023-05-19T22:09:32.921Z,11.65
2023-05-19T22:10:33.161Z,11.64
2023-05-19T22:11:32.901Z,11.58
2023-05-19T22:12:33.002Z,11.51
2023-05-19T22:13:32.893Z,11.54
2023-05-19T22:14:32.881Z,11.50
2023-05-19T22:15:32.868Z,11.49
2023-05-19T22:16:32.872Z,11.40
2023-05-19T22:17:32.881Z,11.36
2023-05-19T22:18:32.830Z,11.37
2023-05-19T22:19:32.831Z,11.25
2023-05-19T22:20:32.989Z,11.24
2023-05-19T22:21:32.811Z,11.32
2023-05-19T22:22:32.805Z,11.31
2023-05-19T22:23:32.778Z,11.25
2023-05-19T22:24:32.768Z,11.32
2023-05-19T22:25:32.787Z,11.31
2023-05-19T22:26:32.781Z,11.34
2023-05-19T22:27:32.749Z,11.34
2023-05-19T22:28:32.732Z,11.46
2023-05-19T22:29:32.738Z,11.32
2023-05-19T22:30:32.902Z,11.32
2023-05-19T22:31:32.716Z,11.32
2023-05-19T22:32:32.726Z,11.28
2023-05-19T22:33:32.665Z,11.21
2023-05-19T22:34:32.670Z,11.26
2023-05-19T22:35:32.675Z,11.14
2023-05-19T22:36:32.669Z,11.08
2023-05-19T22:37:32.627Z,11.16
2023-05-19T22:38:32.625Z,11.21
2023-05-19T22:39:32.608Z,11.22
2023-05-19T22:40:32.956Z,11.19
2023-05-19T22:41:32.600Z,11.19
2023-05-19T22:42:32.581Z,11.28
2023-05-19T22:43:32.576Z,11.25
2023-05-19T22:44:32.554Z,11.22
2023-05-19T22:45:32.669Z,11.21
2023-05-19T22:46:32.583Z,11.25
2023-05-19T22:47:32.574Z,11.29
2023-05-19T22:48:32.516Z,11.31
2023-05-19T22:49:32.501Z,11.31
2023-05-19T22:50:32.519Z,11.21
2023-05-19T22:51:32.501Z,11.21
2023-05-19T22:52:32.488Z,11.19
2023-05-19T22:53:32.471Z,11.18
2023-05-19T22:54:32.454Z,11.21
2023-05-19T22:55:32.708Z,11.31
2023-05-19T22:56:32.460Z,11.28
2023-05-19T22:57:32.414Z,11.32
2023-05-19T22:58:32.416Z,11.39
2023-05-19T22:59:32.420Z,11.46
2023-05-19T23:00:32.392Z,11.51
2023-05-19T23:01:32.428Z,11.58
2023-05-19T23:02:32.389Z,11.54
2023-05-19T23:03:32.354Z,11.51
2023-05-19T23:04:32.392Z,11.40
2023-05-19T23:05:32.483Z,11.42
2023-05-19T23:06:32.347Z,11.43
2023-05-19T23:07:32.312Z,11.32
2023-05-19T23:08:32.330Z,11.39
2023-05-19T23:09:32.306Z,11.37
2023-05-19T23:10:32.287Z,11.40
2023-05-19T23:11:32.268Z,11.39
2023-05-19T23:12:32.267Z,11.42
2023-05-19T23:13:32.296Z,11.43
2023-05-19T23:14:32.246Z,11.39
2023-05-19T23:15:32.431Z,11.42
2023-05-19T23:16:32.308Z,11.39
2023-05-19T23:17:32.221Z,11.40
2023-05-19T23:18:32.205Z,11.34
2023-05-19T23:19:32.186Z,11.37
2023-05-19T23:20:32.201Z,11.39
2023-05-19T23:21:32.164Z,11.42
2023-05-19T23:22:32.165Z,11.49
2023-05-19T23:23:32.142Z,11.54
2023-05-19T23:24:32.136Z,11.49
2023-05-19T23:25:32.492Z,11.54
2023-05-19T23:26:32.118Z,11.57
2023-05-19T23:27:32.124Z,11.44
2023-05-19T23:28:32.096Z,11.47
2023-05-19T23:29:32.081Z,11.59
2023-05-19T23:30:32.074Z,11.64
2023-05-19T23:31:32.093Z,11.62
2023-05-19T23:32:32.150Z,11.65
2023-05-19T23:33:32.040Z,11.68
2023-05-19T23:34:32.029Z,11.69
2023-05-19T23:35:32.272Z,11.75
2023-05-19T23:36:32.031Z,11.80
2023-05-19T23:37:32.017Z,11.83
2023-05-19T23:38:31.995Z,11.86
2023-05-19T23:39:31.987Z,11.87
2023-05-19T23:40:31.972Z,11.91
2023-05-19T23:41:31.974Z,11.95
2023-05-19T23:42:31.957Z,11.99
2023-05-19T23:43:31.936Z,12.03
2023-05-19T23:44:31.944Z,12.08
2023-05-19T23:45:32.099Z,12.10
2023-05-19T23:46:32.068Z,12.16
2023-05-19T23:47:31.944Z,12.16
2023-05-19T23:48:31.898Z,12.21
2023-05-19T23:49:31.896Z,12.26
2023-05-19T23:50:31.871Z,12.31
2023-05-19T23:51:31.869Z,12.36
2023-05-19T23:52:31.858Z,12.38
2023-05-19T23:53:31.838Z,12.42
2023-05-19T23:54:31.852Z,12.42
2023-05-19T23:55:32.102Z,12.50
2023-05-19T23:56:31.803Z,12.54
2023-05-19T23:57:31.798Z,12.56
2023-05-19T23:58:31.798Z,12.56
2023-05-19T23:59:31.771Z,12.60
